sensor_id;sensor_type;location;lat;lon;timestamp;pressure;altitude;pressure_sealevel;temperature;humidity
69971;BME280;57301;50.328;8.542;2022-08-03T00:00:23;98537.13;;;16.08;74.43
69971;BME280;57301;50.328;8.542;2022-08-03T00:02:51;98532.94;;;16.06;74.50
69971;BME280;57301;50.328;8.542;2022-08-03T00:05:18;98538.81;;;16.09;73.93
69971;BME280;57301;50.328;8.542;2022-08-03T00:07:45;98535.72;;;16.12;74.33
69971;BME280;57301;50.328;8.542;2022-08-03T00:10:14;98524.13;;;16.12;73.87
69971;BME280;57301;50.328;8.542;2022-08-03T00:12:41;98528.13;;;16.16;73.34
69971;BME280;57301;50.328;8.542;2022-08-03T00:15:08;98537.78;;;16.10;74.07
69971;BME280;57301;50.328;8.542;2022-08-03T00:17:40;98533.78;;;16.06;73.85
69971;BME280;57301;50.328;8.542;2022-08-03T00:20:20;98533.78;;;16.06;73.53
69971;BME280;57301;50.328;8.542;2022-08-03T00:22:47;98526.47;;;16.00;73.55
69971;BME280;57301;50.328;8.542;2022-08-03T00:25:13;98525.53;;;15.93;73.70
69971;BME280;57301;50.328;8.542;2022-08-03T00:27:40;98527.88;;;15.96;73.61
69971;BME280;57301;50.328;8.542;2022-08-03T00:30:07;98524.91;;;15.91;73.68
69971;BME280;57301;50.328;8.542;2022-08-03T00:32:34;98521.75;;;15.88;73.79
69971;BME280;57301;50.328;8.542;2022-08-03T00:35:01;98527.78;;;15.75;74.55
69971;BME280;57301;50.328;8.542;2022-08-03T00:37:35;98533.34;;;15.73;74.26
69971;BME280;57301;50.328;8.542;2022-08-03T00:40:11;98525.84;;;15.69;74.40
69971;BME280;57301;50.328;8.542;2022-08-03T00:43:05;98530.56;;;15.67;74.13
69971;BME280;57301;50.328;8.542;2022-08-03T00:45:36;98528.25;;;15.64;74.64
69971;BME280;57301;50.328;8.542;2022-08-03T00:48:05;98519.59;;;15.53;74.90
69971;BME280;57301;50.328;8.542;2022-08-03T00:50:52;98521.53;;;15.45;75.57
69971;BME280;57301;50.328;8.542;2022-08-03T00:53:19;98529.31;;;15.40;75.80
69971;BME280;57301;50.328;8.542;2022-08-03T00:55:46;98523.28;;;15.38;76.13
69971;BME280;57301;50.328;8.542;2022-08-03T00:58:12;98529.78;;;15.43;76.07
69971;BME280;57301;50.328;8.542;2022-08-03T01:00:39;98529.03;;;15.49;75.42
69971;BME280;57301;50.328;8.542;2022-08-03T01:03:08;98532.28;;;15.45;75.56
69971;BME280;57301;50.328;8.542;2022-08-03T01:05:57;98526.34;;;15.35;76.20
69971;BME280;57301;50.328;8.542;2022-08-03T01:08:35;98524.66;;;15.33;76.08
69971;BME280;57301;50.328;8.542;2022-08-03T01:11:11;98522.81;;;15.34;75.81
69971;BME280;57301;50.328;8.542;2022-08-03T01:13:48;98524.41;;;15.28;75.92
69971;BME280;57301;50.328;8.542;2022-08-03T01:16:55;98515.75;;;15.33;75.64
69971;BME280;57301;50.328;8.542;2022-08-03T01:25:02;98526.78;;;15.23;75.92
69971;BME280;57301;50.328;8.542;2022-08-03T01:27:57;98526.28;;;15.05;76.73
69971;BME280;57301;50.328;8.542;2022-08-03T01:30:30;98526.75;;;15.09;76.21
69971;BME280;57301;50.328;8.542;2022-08-03T01:33:01;98515.84;;;15.10;76.87
69971;BME280;57301;50.328;8.542;2022-08-03T01:35:38;98517.31;;;15.13;76.75
69971;BME280;57301;50.328;8.542;2022-08-03T01:38:22;98512.97;;;15.12;76.52
69971;BME280;57301;50.328;8.542;2022-08-03T01:40:51;98524.72;;;15.11;77.05
69971;BME280;57301;50.328;8.542;2022-08-03T01:43:24;98526.84;;;15.15;76.78
69971;BME280;57301;50.328;8.542;2022-08-03T01:46:13;98517.56;;;15.03;77.17
69971;BME280;57301;50.328;8.542;2022-08-03T01:48:42;98512.69;;;15.07;76.87
69971;BME280;57301;50.328;8.542;2022-08-03T01:51:09;98518.03;;;15.07;76.32
69971;BME280;57301;50.328;8.542;2022-08-03T01:53:39;98512.56;;;15.00;77.17
69971;BME280;57301;50.328;8.542;2022-08-03T01:56:10;98514.59;;;14.98;77.13
69971;BME280;57301;50.328;8.542;2022-08-03T01:58:38;98521.53;;;14.92;77.20
69971;BME280;57301;50.328;8.542;2022-08-03T02:01:07;98512.41;;;14.78;78.08
69971;BME280;57301;50.328;8.542;2022-08-03T02:03:40;98517.84;;;14.70;78.22
69971;BME280;57301;50.328;8.542;2022-08-03T02:06:28;98513.94;;;14.73;78.02
69971;BME280;57301;50.328;8.542;2022-08-03T02:09:16;98520.22;;;14.65;78.41
69971;BME280;57301;50.328;8.542;2022-08-03T02:11:45;98515.88;;;14.64;78.37
69971;BME280;57301;50.328;8.542;2022-08-03T02:14:13;98521.16;;;14.72;78.71
69971;BME280;57301;50.328;8.542;2022-08-03T02:16:42;98512.16;;;14.65;78.49
69971;BME280;57301;50.328;8.542;2022-08-03T02:19:11;98520.53;;;14.70;77.94
69971;BME280;57301;50.328;8.542;2022-08-03T02:21:40;98521.88;;;14.43;79.15
69971;BME280;57301;50.328;8.542;2022-08-03T02:24:26;98522.34;;;14.47;78.62
69971;BME280;57301;50.328;8.542;2022-08-03T02:26:55;98522.03;;;14.50;78.44
69971;BME280;57301;50.328;8.542;2022-08-03T02:29:24;98515.00;;;14.41;78.92
69971;BME280;57301;50.328;8.542;2022-08-03T02:32:11;98506.25;;;14.47;78.51
69971;BME280;57301;50.328;8.542;2022-08-03T02:34:41;98506.25;;;14.47;78.26
69971;BME280;57301;50.328;8.542;2022-08-03T02:37:09;98502.25;;;14.43;78.26
69971;BME280;57301;50.328;8.542;2022-08-03T02:39:38;98506.28;;;14.39;78.32
69971;BME280;57301;50.328;8.542;2022-08-03T02:42:08;98509.31;;;14.36;78.32
69971;BME280;57301;50.328;8.542;2022-08-03T02:44:39;98517.25;;;14.29;78.61
69971;BME280;57301;50.328;8.542;2022-08-03T02:47:08;98508.84;;;14.32;78.84
69971;BME280;57301;50.328;8.542;2022-08-03T02:49:37;98502.34;;;14.27;78.63
69971;BME280;57301;50.328;8.542;2022-08-03T02:52:22;98507.53;;;14.28;79.00
69971;BME280;57301;50.328;8.542;2022-08-03T02:54:52;98506.75;;;14.19;78.92
69971;BME280;57301;50.328;8.542;2022-08-03T02:57:20;98504.06;;;14.19;79.05
69971;BME280;57301;50.328;8.542;2022-08-03T02:59:48;98503.53;;;14.24;78.60
69971;BME280;57301;50.328;8.542;2022-08-03T03:02:17;98499.47;;;14.28;78.42
69971;BME280;57301;50.328;8.542;2022-08-03T03:04:45;98501.03;;;14.22;79.07
69971;BME280;57301;50.328;8.542;2022-08-03T03:07:36;98499.72;;;14.18;79.03
69971;BME280;57301;50.328;8.542;2022-08-03T03:10:21;98498.22;;;14.16;78.91
69971;BME280;57301;50.328;8.542;2022-08-03T03:12:54;98496.41;;;14.08;79.29
69971;BME280;57301;50.328;8.542;2022-08-03T03:15:23;98510.78;;;13.29;83.54
69971;BME280;57301;50.328;8.542;2022-08-03T03:17:50;98503.38;;;13.47;83.30
69971;BME280;57301;50.328;8.542;2022-08-03T03:20:20;98511.50;;;13.62;82.22
69971;BME280;57301;50.328;8.542;2022-08-03T03:22:57;98504.44;;;13.77;81.39
69971;BME280;57301;50.328;8.542;2022-08-03T03:25:24;98507.56;;;13.89;80.92
69971;BME280;57301;50.328;8.542;2022-08-03T03:27:51;98498.53;;;13.90;80.66
69971;BME280;57301;50.328;8.542;2022-08-03T03:30:18;98497.88;;;13.88;80.37
69971;BME280;57301;50.328;8.542;2022-08-03T03:32:45;98500.38;;;13.89;80.90
69971;BME280;57301;50.328;8.542;2022-08-03T03:35:12;98501.34;;;13.96;80.59
69971;BME280;57301;50.328;8.542;2022-08-03T03:37:39;98504.00;;;13.96;79.67
69971;BME280;57301;50.328;8.542;2022-08-03T03:40:06;98511.16;;;13.73;81.21
69971;BME280;57301;50.328;8.542;2022-08-03T03:42:34;98505.97;;;13.71;81.45
69971;BME280;57301;50.328;8.542;2022-08-03T03:45:05;98510.97;;;13.75;80.99
69971;BME280;57301;50.328;8.542;2022-08-03T03:47:36;98501.94;;;13.76;81.02
69971;BME280;57301;50.328;8.542;2022-08-03T03:50:04;98508.28;;;13.75;80.96
69971;BME280;57301;50.328;8.542;2022-08-03T03:52:32;98502.91;;;13.83;80.65
69971;BME280;57301;50.328;8.542;2022-08-03T03:54:59;98509.16;;;13.75;80.43
69971;BME280;57301;50.328;8.542;2022-08-03T03:57:27;98502.91;;;13.83;80.53
69971;BME280;57301;50.328;8.542;2022-08-03T03:59:54;98504.63;;;13.76;80.38
69971;BME280;57301;50.328;8.542;2022-08-03T04:02:21;98501.09;;;13.75;80.64
69971;BME280;57301;50.328;8.542;2022-08-03T04:04:47;98507.25;;;13.84;80.43
69971;BME280;57301;50.328;8.542;2022-08-03T04:07:45;98504.75;;;13.82;79.98
69971;BME280;57301;50.328;8.542;2022-08-03T04:10:38;98502.41;;;13.79;79.67
69971;BME280;57301;50.328;8.542;2022-08-03T04:13:32;98506.94;;;13.79;79.92
69971;BME280;57301;50.328;8.542;2022-08-03T04:15:59;98501.44;;;13.72;80.16
69971;BME280;57301;50.328;8.542;2022-08-03T04:18:28;98506.28;;;13.68;80.09
69971;BME280;57301;50.328;8.542;2022-08-03T04:20:58;98495.06;;;13.73;79.69
69971;BME280;57301;50.328;8.542;2022-08-03T04:23:27;98501.41;;;13.80;79.66
69971;BME280;57301;50.328;8.542;2022-08-03T04:25:56;98507.44;;;13.82;79.86
69971;BME280;57301;50.328;8.542;2022-08-03T04:28:25;98505.06;;;13.87;79.96
69971;BME280;57301;50.328;8.542;2022-08-03T04:30:58;98498.34;;;13.91;79.30
69971;BME280;57301;50.328;8.542;2022-08-03T04:33:28;98505.03;;;13.95;79.28
69971;BME280;57301;50.328;8.542;2022-08-03T04:35:58;98506.50;;;13.98;79.34
69971;BME280;57301;50.328;8.542;2022-08-03T04:38:30;98500.13;;;13.99;79.47
69971;BME280;57301;50.328;8.542;2022-08-03T04:40:58;98510.31;;;14.12;79.52
69971;BME280;57301;50.328;8.542;2022-08-03T04:43:26;98510.25;;;14.20;79.07
69971;BME280;57301;50.328;8.542;2022-08-03T04:45:54;98512.13;;;14.19;79.05
69971;BME280;57301;50.328;8.542;2022-08-03T04:48:22;98510.84;;;13.99;80.37
69971;BME280;57301;50.328;8.542;2022-08-03T04:50:49;98511.75;;;14.22;79.78
69971;BME280;57301;50.328;8.542;2022-08-03T04:53:16;98511.00;;;14.37;79.23
69971;BME280;57301;50.328;8.542;2022-08-03T04:55:45;98519.50;;;14.48;78.75
69971;BME280;57301;50.328;8.542;2022-08-03T04:58:11;98516.06;;;14.63;78.23
69971;BME280;57301;50.328;8.542;2022-08-03T05:00:38;98511.75;;;14.76;77.74
69971;BME280;57301;50.328;8.542;2022-08-03T05:03:04;98521.53;;;14.92;77.03
69971;BME280;57301;50.328;8.542;2022-08-03T05:05:49;98521.56;;;15.07;76.93
69971;BME280;57301;50.328;8.542;2022-08-03T05:08:16;98521.78;;;15.20;77.08
69971;BME280;57301;50.328;8.542;2022-08-03T05:10:54;98520.59;;;15.23;76.57
69971;BME280;57301;50.328;8.542;2022-08-03T05:13:22;98527.25;;;14.89;77.38
69971;BME280;57301;50.328;8.542;2022-08-03T05:15:48;98530.00;;;15.04;78.09
69971;BME280;57301;50.328;8.542;2022-08-03T05:18:15;98532.59;;;15.12;77.64
69971;BME280;57301;50.328;8.542;2022-08-03T05:20:42;98522.66;;;15.36;76.74
69971;BME280;57301;50.328;8.542;2022-08-03T05:23:11;98519.66;;;15.30;76.00
69971;BME280;57301;50.328;8.542;2022-08-03T05:25:37;98525.03;;;15.30;77.06
69971;BME280;57301;50.328;8.542;2022-08-03T05:28:04;98521.84;;;15.79;75.31
69971;BME280;57301;50.328;8.542;2022-08-03T05:30:31;98531.31;;;16.26;74.31
69971;BME280;57301;50.328;8.542;2022-08-03T05:33:00;98525.88;;;16.99;71.78
69971;BME280;57301;50.328;8.542;2022-08-03T05:35:27;98520.47;;;18.17;68.42
69971;BME280;57301;50.328;8.542;2022-08-03T05:38:14;98522.97;;;19.59;63.15
69971;BME280;57301;50.328;8.542;2022-08-03T05:40:55;98520.13;;;21.45;57.48
69971;BME280;57301;50.328;8.542;2022-08-03T05:43:23;98522.50;;;23.36;50.49
69971;BME280;57301;50.328;8.542;2022-08-03T05:45:49;98518.81;;;24.52;47.80
69971;BME280;57301;50.328;8.542;2022-08-03T05:48:36;98525.28;;;26.14;43.53
69971;BME280;57301;50.328;8.542;2022-08-03T05:51:03;98513.09;;;27.20;41.08
69971;BME280;57301;50.328;8.542;2022-08-03T05:53:36;98516.91;;;27.98;39.15
69971;BME280;57301;50.328;8.542;2022-08-03T05:56:03;98521.69;;;28.23;37.78
69971;BME280;57301;50.328;8.542;2022-08-03T05:58:47;98528.31;;;29.26;35.85
69971;BME280;57301;50.328;8.542;2022-08-03T06:01:14;98526.09;;;29.79;34.54
69971;BME280;57301;50.328;8.542;2022-08-03T06:03:41;98529.75;;;30.44;33.78
69971;BME280;57301;50.328;8.542;2022-08-03T06:06:08;98531.31;;;30.75;32.06
69971;BME280;57301;50.328;8.542;2022-08-03T06:08:34;98532.41;;;31.14;32.09
69971;BME280;57301;50.328;8.542;2022-08-03T06:11:01;98531.09;;;31.06;31.61
69971;BME280;57301;50.328;8.542;2022-08-03T06:13:28;98542.50;;;30.89;31.58
69971;BME280;57301;50.328;8.542;2022-08-03T06:15:55;98528.03;;;32.05;29.77
69971;BME280;57301;50.328;8.542;2022-08-03T06:18:21;98523.78;;;32.79;28.65
69971;BME280;57301;50.328;8.542;2022-08-03T06:20:50;98528.47;;;33.35;27.90
69971;BME280;57301;50.328;8.542;2022-08-03T06:23:17;98526.44;;;33.60;27.66
69971;BME280;57301;50.328;8.542;2022-08-03T06:25:45;98529.19;;;33.60;28.44
69971;BME280;57301;50.328;8.542;2022-08-03T06:28:13;98530.91;;;33.56;28.46
69971;BME280;57301;50.328;8.542;2022-08-03T06:31:00;98531.28;;;33.82;28.32
69971;BME280;57301;50.328;8.542;2022-08-03T06:33:27;98523.63;;;33.92;28.47
69971;BME280;57301;50.328;8.542;2022-08-03T06:36:14;98518.41;;;34.05;28.74
69971;BME280;57301;50.328;8.542;2022-08-03T06:38:40;98527.75;;;34.09;29.05
69971;BME280;57301;50.328;8.542;2022-08-03T06:41:07;98528.88;;;34.49;27.56
69971;BME280;57301;50.328;8.542;2022-08-03T06:43:33;98528.88;;;34.35;27.45
69971;BME280;57301;50.328;8.542;2022-08-03T06:46:22;98522.53;;;33.61;28.17
69971;BME280;57301;50.328;8.542;2022-08-03T06:48:49;98530.03;;;33.74;28.00
69971;BME280;57301;50.328;8.542;2022-08-03T06:51:15;98527.91;;;33.71;28.12
69971;BME280;57301;50.328;8.542;2022-08-03T06:53:42;98523.69;;;33.87;27.87
69971;BME280;57301;50.328;8.542;2022-08-03T06:56:09;98527.53;;;34.19;27.44
69971;BME280;57301;50.328;8.542;2022-08-03T06:58:36;98529.84;;;34.44;27.41
69971;BME280;57301;50.328;8.542;2022-08-03T07:01:02;98529.78;;;34.72;27.01
69971;BME280;57301;50.328;8.542;2022-08-03T07:03:29;98532.13;;;35.15;26.33
69971;BME280;57301;50.328;8.542;2022-08-03T07:05:55;98536.25;;;35.62;25.93
69971;BME280;57301;50.328;8.542;2022-08-03T07:08:22;98536.03;;;35.81;24.44
69971;BME280;57301;50.328;8.542;2022-08-03T07:10:59;98535.44;;;36.32;25.04
69971;BME280;57301;50.328;8.542;2022-08-03T07:13:26;98530.28;;;36.40;25.12
69971;BME280;57301;50.328;8.542;2022-08-03T07:15:52;98534.50;;;36.37;24.61
69971;BME280;57301;50.328;8.542;2022-08-03T07:18:22;98530.22;;;36.88;23.05
69971;BME280;57301;50.328;8.542;2022-08-03T07:20:56;98529.91;;;36.98;23.45
69971;BME280;57301;50.328;8.542;2022-08-03T07:23:22;98529.91;;;36.98;23.89
69971;BME280;57301;50.328;8.542;2022-08-03T07:25:49;98528.28;;;36.97;24.10
69971;BME280;57301;50.328;8.542;2022-08-03T07:28:16;98526.13;;;37.29;22.69
69971;BME280;57301;50.328;8.542;2022-08-03T07:30:42;98516.81;;;37.33;22.85
69971;BME280;57301;50.328;8.542;2022-08-03T07:33:09;98525.91;;;37.69;22.41
69971;BME280;57301;50.328;8.542;2022-08-03T07:35:36;98526.41;;;37.88;22.78
69971;BME280;57301;50.328;8.542;2022-08-03T07:38:02;98532.75;;;37.97;21.26
69971;BME280;57301;50.328;8.542;2022-08-03T07:40:28;98523.16;;;38.15;21.74
69971;BME280;57301;50.328;8.542;2022-08-03T07:42:57;98528.06;;;38.57;21.63
69971;BME280;57301;50.328;8.542;2022-08-03T07:45:23;98519.28;;;37.26;21.05
69971;BME280;57301;50.328;8.542;2022-08-03T07:47:52;98517.97;;;37.06;22.21
69971;BME280;57301;50.328;8.542;2022-08-03T07:50:20;98524.09;;;37.90;20.27
69971;BME280;57301;50.328;8.542;2022-08-03T07:52:48;98524.38;;;36.90;19.91
69971;BME280;57301;50.328;8.542;2022-08-03T07:55:20;98523.69;;;36.93;21.59
69971;BME280;57301;50.328;8.542;2022-08-03T07:57:58;98523.41;;;35.44;22.30
69971;BME280;57301;50.328;8.542;2022-08-03T08:00:25;98521.53;;;36.81;20.87
69971;BME280;57301;50.328;8.542;2022-08-03T08:02:51;98522.16;;;36.69;20.14
69971;BME280;57301;50.328;8.542;2022-08-03T08:05:18;98519.75;;;36.85;20.15
69971;BME280;57301;50.328;8.542;2022-08-03T08:07:44;98527.84;;;34.31;22.25
69971;BME280;57301;50.328;8.542;2022-08-03T08:10:16;98512.09;;;36.33;22.32
69971;BME280;57301;50.328;8.542;2022-08-03T08:12:43;98513.34;;;35.79;21.48
69971;BME280;57301;50.328;8.542;2022-08-03T08:15:09;98511.69;;;34.88;22.01
69971;BME280;57301;50.328;8.542;2022-08-03T08:17:51;98507.31;;;34.60;22.66
69971;BME280;57301;50.328;8.542;2022-08-03T08:20:22;98514.41;;;34.38;22.38
69971;BME280;57301;50.328;8.542;2022-08-03T08:22:57;98510.44;;;33.57;22.88
69971;BME280;57301;50.328;8.542;2022-08-03T08:25:27;98504.03;;;35.30;22.36
69971;BME280;57301;50.328;8.542;2022-08-03T08:27:54;98501.00;;;34.95;22.00
69971;BME280;57301;50.328;8.542;2022-08-03T08:30:41;98504.66;;;35.05;22.79
69971;BME280;57301;50.328;8.542;2022-08-03T08:33:07;98499.94;;;34.91;21.60
69971;BME280;57301;50.328;8.542;2022-08-03T08:35:49;98501.81;;;34.96;22.31
69971;BME280;57301;50.328;8.542;2022-08-03T08:38:15;98493.84;;;34.81;22.26
69971;BME280;57301;50.328;8.542;2022-08-03T08:40:42;98494.78;;;33.80;23.67
69971;BME280;57301;50.328;8.542;2022-08-03T08:43:08;98504.50;;;33.63;23.92
69971;BME280;57301;50.328;8.542;2022-08-03T08:45:35;98495.56;;;32.82;24.90
69971;BME280;57301;50.328;8.542;2022-08-03T08:48:03;98496.63;;;33.38;24.29
69971;BME280;57301;50.328;8.542;2022-08-03T08:50:35;98487.78;;;33.22;24.42
69971;BME280;57301;50.328;8.542;2022-08-03T08:53:03;98485.91;;;34.10;24.19
69971;BME280;57301;50.328;8.542;2022-08-03T08:55:35;98490.88;;;33.53;24.29
69971;BME280;57301;50.328;8.542;2022-08-03T08:58:22;98479.31;;;33.00;25.07
69971;BME280;57301;50.328;8.542;2022-08-03T09:00:49;98491.53;;;32.56;25.94
69971;BME280;57301;50.328;8.542;2022-08-03T09:03:16;98482.16;;;32.33;25.80
69971;BME280;57301;50.328;8.542;2022-08-03T09:05:56;98485.06;;;32.84;25.44
69971;BME280;57301;50.328;8.542;2022-08-03T09:08:23;98485.13;;;31.94;26.22
69971;BME280;57301;50.328;8.542;2022-08-03T09:10:49;98484.56;;;32.40;26.05
69971;BME280;57301;50.328;8.542;2022-08-03T09:13:16;98481.00;;;32.15;26.63
69971;BME280;57301;50.328;8.542;2022-08-03T09:15:42;98486.50;;;32.39;25.93
69971;BME280;57301;50.328;8.542;2022-08-03T09:18:29;98492.97;;;31.81;26.62
69971;BME280;57301;50.328;8.542;2022-08-03T09:21:18;98483.00;;;32.33;25.53
69971;BME280;57301;50.328;8.542;2022-08-03T09:24:02;98493.91;;;33.19;25.91
69971;BME280;57301;50.328;8.542;2022-08-03T09:26:35;98492.50;;;33.22;24.96
69971;BME280;57301;50.328;8.542;2022-08-03T09:29:08;98491.34;;;31.80;27.11
69971;BME280;57301;50.328;8.542;2022-08-03T09:31:42;98495.53;;;32.87;25.05
69971;BME280;57301;50.328;8.542;2022-08-03T09:34:12;98488.28;;;32.30;26.09
69971;BME280;57301;50.328;8.542;2022-08-03T09:36:44;98486.09;;;32.03;25.88
69971;BME280;57301;50.328;8.542;2022-08-03T09:39:19;98492.09;;;32.10;26.17
69971;BME280;57301;50.328;8.542;2022-08-03T09:42:18;98478.03;;;32.35;25.64
69971;BME280;57301;50.328;8.542;2022-08-03T09:44:50;98475.59;;;32.91;25.14
69971;BME280;57301;50.328;8.542;2022-08-03T09:47:28;98479.34;;;32.38;25.82
69971;BME280;57301;50.328;8.542;2022-08-03T09:49:58;98471.91;;;32.95;25.10
69971;BME280;57301;50.328;8.542;2022-08-03T09:52:45;98482.84;;;33.98;24.50
69971;BME280;57301;50.328;8.542;2022-08-03T09:55:18;98471.81;;;33.33;24.81
69971;BME280;57301;50.328;8.542;2022-08-03T09:58:10;98480.78;;;32.73;25.60
69971;BME280;57301;50.328;8.542;2022-08-03T10:03:20;98470.03;;;33.09;25.02
69971;BME280;57301;50.328;8.542;2022-08-03T10:05:47;98472.50;;;31.88;25.96
69971;BME280;57301;50.328;8.542;2022-08-03T10:08:14;98470.09;;;32.05;26.36
69971;BME280;57301;50.328;8.542;2022-08-03T10:10:43;98464.72;;;32.75;25.73
69971;BME280;57301;50.328;8.542;2022-08-03T10:13:14;98466.31;;;32.44;25.32
69971;BME280;57301;50.328;8.542;2022-08-03T10:15:41;98467.53;;;33.73;25.20
69971;BME280;57301;50.328;8.542;2022-08-03T10:18:27;98469.09;;;33.79;23.95
69971;BME280;57301;50.328;8.542;2022-08-03T10:20:58;98468.84;;;32.59;26.36
69971;BME280;57301;50.328;8.542;2022-08-03T10:23:33;98459.63;;;33.53;24.64
69971;BME280;57301;50.328;8.542;2022-08-03T10:26:01;98452.50;;;33.93;24.01
69971;BME280;57301;50.328;8.542;2022-08-03T10:28:39;98445.19;;;33.69;23.87
69971;BME280;57301;50.328;8.542;2022-08-03T10:31:12;98449.28;;;32.37;25.32
69971;BME280;57301;50.328;8.542;2022-08-03T10:33:42;98454.66;;;32.84;25.13
69971;BME280;57301;50.328;8.542;2022-08-03T10:36:21;98445.09;;;34.43;23.03
69971;BME280;57301;50.328;8.542;2022-08-03T10:38:50;98438.50;;;35.12;22.20
69971;BME280;57301;50.328;8.542;2022-08-03T10:41:22;98439.78;;;34.92;22.55
69971;BME280;57301;50.328;8.542;2022-08-03T10:44:09;98433.69;;;35.26;22.62
69971;BME280;57301;50.328;8.542;2022-08-03T10:46:38;98438.06;;;34.96;22.31
69971;BME280;57301;50.328;8.542;2022-08-03T10:49:15;98438.19;;;35.67;21.89
69971;BME280;57301;50.328;8.542;2022-08-03T10:51:59;98433.13;;;33.65;24.34
69971;BME280;57301;50.328;8.542;2022-08-03T10:54:41;98438.84;;;34.24;23.13
69971;BME280;57301;50.328;8.542;2022-08-03T10:57:47;98428.78;;;34.78;22.79
69971;BME280;57301;50.328;8.542;2022-08-03T11:00:19;98431.25;;;35.02;22.44
69971;BME280;57301;50.328;8.542;2022-08-03T11:03:25;98433.41;;;35.05;22.43
69971;BME280;57301;50.328;8.542;2022-08-03T11:05:51;98427.19;;;36.93;21.42
69971;BME280;57301;50.328;8.542;2022-08-03T11:08:29;98416.31;;;37.44;19.97
69971;BME280;57301;50.328;8.542;2022-08-03T11:11:02;98422.41;;;37.20;20.29
69971;BME280;57301;50.328;8.542;2022-08-03T11:14:00;98418.19;;;36.62;20.49
69971;BME280;57301;50.328;8.542;2022-08-03T11:16:31;98419.97;;;37.01;20.54
69971;BME280;57301;50.328;8.542;2022-08-03T11:19:02;98412.97;;;36.43;20.58
69971;BME280;57301;50.328;8.542;2022-08-03T11:27:17;98408.31;;;34.65;22.53
69971;BME280;57301;50.328;8.542;2022-08-03T11:35:31;98409.66;;;35.75;21.68
69971;BME280;57301;50.328;8.542;2022-08-03T11:38:08;98411.69;;;34.12;23.05
69971;BME280;57301;50.328;8.542;2022-08-03T11:40:48;98408.25;;;35.24;22.28
69971;BME280;57301;50.328;8.542;2022-08-03T11:46:10;98401.25;;;34.59;23.93
69971;BME280;57301;50.328;8.542;2022-08-03T11:49:05;98405.81;;;35.93;21.98
69971;BME280;57301;50.328;8.542;2022-08-03T11:51:37;98413.72;;;35.69;21.64
69971;BME280;57301;50.328;8.542;2022-08-03T11:54:05;98407.38;;;36.34;21.68
69971;BME280;57301;50.328;8.542;2022-08-03T11:56:46;98401.06;;;35.54;22.08
69971;BME280;57301;50.328;8.542;2022-08-03T11:59:13;98405.16;;;35.96;21.44
69971;BME280;57301;50.328;8.542;2022-08-03T12:01:46;98407.63;;;33.96;23.31
69971;BME280;57301;50.328;8.542;2022-08-03T12:04:12;98404.31;;;33.80;23.38
69971;BME280;57301;50.328;8.542;2022-08-03T12:06:57;98402.09;;;34.82;23.13
69971;BME280;57301;50.328;8.542;2022-08-03T12:09:24;98403.94;;;34.73;22.89
69971;BME280;57301;50.328;8.542;2022-08-03T12:11:50;98397.78;;;35.43;21.92
69971;BME280;57301;50.328;8.542;2022-08-03T12:14:26;98394.34;;;34.70;22.97
69971;BME280;57301;50.328;8.542;2022-08-03T12:17:14;98393.81;;;34.32;23.18
69971;BME280;57301;50.328;8.542;2022-08-03T12:19:42;98387.19;;;34.19;23.44
69971;BME280;57301;50.328;8.542;2022-08-03T12:22:09;98388.84;;;35.95;22.11
69971;BME280;57301;50.328;8.542;2022-08-03T12:24:43;98394.69;;;35.22;21.39
69971;BME280;57301;50.328;8.542;2022-08-03T12:27:24;98384.50;;;35.40;21.99
69971;BME280;57301;50.328;8.542;2022-08-03T12:29:55;98383.34;;;35.41;21.59
69971;BME280;57301;50.328;8.542;2022-08-03T12:32:25;98385.03;;;35.82;20.92
69971;BME280;57301;50.328;8.542;2022-08-03T12:34:52;98378.13;;;35.71;20.64
69971;BME280;57301;50.328;8.542;2022-08-03T12:37:19;98383.81;;;35.66;21.49
69971;BME280;57301;50.328;8.542;2022-08-03T12:39:58;98376.28;;;34.95;21.51
69971;BME280;57301;50.328;8.542;2022-08-03T12:42:36;98374.16;;;35.55;21.89
69971;BME280;57301;50.328;8.542;2022-08-03T12:45:27;98371.41;;;35.32;22.56
69971;BME280;57301;50.328;8.542;2022-08-03T12:47:58;98379.59;;;35.37;22.02
69971;BME280;57301;50.328;8.542;2022-08-03T12:50:30;98371.41;;;35.32;21.48
69971;BME280;57301;50.328;8.542;2022-08-03T12:52:59;98374.25;;;34.87;21.50
69971;BME280;57301;50.328;8.542;2022-08-03T12:55:26;98367.03;;;36.45;22.22
69971;BME280;57301;50.328;8.542;2022-08-03T12:58:33;98362.59;;;38.11;19.14
69971;BME280;57301;50.328;8.542;2022-08-03T13:01:02;98363.44;;;39.53;18.71
69971;BME280;57301;50.328;8.542;2022-08-03T13:03:53;98366.66;;;38.97;18.30
69971;BME280;57301;50.328;8.542;2022-08-03T13:06:23;98358.44;;;39.58;17.38
69971;BME280;57301;50.328;8.542;2022-08-03T13:09:10;98358.59;;;37.70;19.47
69971;BME280;57301;50.328;8.542;2022-08-03T13:11:37;98365.22;;;36.84;20.35
69971;BME280;57301;50.328;8.542;2022-08-03T13:14:24;98359.63;;;37.10;20.37
69971;BME280;57301;50.328;8.542;2022-08-03T13:16:50;98362.44;;;37.48;18.80
69971;BME280;57301;50.328;8.542;2022-08-03T13:19:17;98361.03;;;37.72;19.17
69971;BME280;57301;50.328;8.542;2022-08-03T13:21:43;98360.31;;;40.15;17.82
69971;BME280;57301;50.328;8.542;2022-08-03T13:24:29;98365.09;;;42.22;15.94
69971;BME280;57301;50.328;8.542;2022-08-03T13:26:57;98354.75;;;41.27;14.94
69971;BME280;57301;50.328;8.542;2022-08-03T13:29:23;98357.56;;;41.43;16.17
69971;BME280;57301;50.328;8.542;2022-08-03T13:31:50;98352.19;;;42.36;14.51
69971;BME280;57301;50.328;8.542;2022-08-03T13:34:17;98347.19;;;42.46;14.81
69971;BME280;57301;50.328;8.542;2022-08-03T13:36:49;98351.97;;;42.45;14.93
69971;BME280;57301;50.328;8.542;2022-08-03T13:39:37;98346.44;;;41.78;14.65
69971;BME280;57301;50.328;8.542;2022-08-03T13:42:24;98342.53;;;40.76;15.68
69971;BME280;57301;50.328;8.542;2022-08-03T13:44:50;98340.69;;;41.40;15.27
69971;BME280;57301;50.328;8.542;2022-08-03T13:47:17;98343.72;;;41.03;15.29
69971;BME280;57301;50.328;8.542;2022-08-03T13:49:44;98333.63;;;42.12;14.27